Saint Catharine, Missouri
Current Conditions -  °F | °C
As of 4:55 PM on Monday 24 Nov 2014 (Local Time) from KIRK Reporting Station
Overcast Overcast  
Wind Chill: 23°   Ceiling: 2700
Heat Index: 31°   Visibility: 10mi
Dew Point: 24°   Wind: 9mph
Humidity: 76%   Direction: 260°W
Pressure: 29.83"   Gusts: 20mph
Location:  39.774°N, 93.0696°W
Report Text: KIRK 242255Z AUTO 26008G17KT 10SM OVC027 M01/M04 A2983 RMK AO2 SLP114 T10061044
Loading
Personal Weather Stations






























Interactive Weather Map New forecast layout! Learn more

10-Day Weather Forecast

Advertisements
Track Severe Weather on mobile